createdAt,value
2017-05-27T00:00:51.627Z,13.26
2017-05-27T00:01:48.987Z,13.26
2017-05-27T00:02:45.315Z,13.20
2017-05-27T00:03:41.635Z,13.24
2017-05-27T00:04:37.928Z,13.18
2017-05-27T00:05:34.231Z,13.20
2017-05-27T00:06:30.544Z,13.24
2017-05-27T00:07:26.835Z,13.24
2017-05-27T00:10:42.740Z,13.18
2017-05-27T00:11:39.032Z,13.20
2017-05-27T00:12:35.320Z,13.20
2017-05-27T00:13:31.612Z,13.20
2017-05-27T00:14:27.943Z,13.20
2017-05-27T00:15:24.223Z,13.24
2017-05-27T00:16:20.590Z,13.18
2017-05-27T00:17:17.800Z,13.18
2017-05-27T00:18:15.186Z,13.18
2017-05-27T00:19:11.419Z,13.24
2017-05-27T00:20:08.721Z,13.24
2017-05-27T00:21:05.072Z,13.18
2017-05-27T00:22:01.509Z,13.24
2017-05-27T00:22:57.900Z,13.18
2017-05-27T00:23:54.208Z,13.24
2017-05-27T00:24:50.471Z,13.18
2017-05-27T00:25:48.732Z,13.18
2017-05-27T00:26:45.011Z,13.24
2017-05-27T00:27:43.364Z,13.24
2017-05-27T00:28:41.612Z,13.18
2017-05-27T00:29:38.129Z,13.18
2017-05-27T00:30:34.499Z,13.18
2017-05-27T00:31:30.870Z,13.24
2017-05-27T00:32:28.271Z,13.24
2017-05-27T00:33:24.605Z,13.18
2017-05-27T00:34:20.960Z,13.18
2017-05-27T00:36:24.273Z,13.18
2017-05-27T00:37:20.607Z,13.24
2017-05-27T00:38:17.904Z,13.24
2017-05-27T00:39:14.289Z,13.23
2017-05-27T00:40:11.615Z,13.18
2017-05-27T00:41:09.021Z,13.18
2017-05-27T00:49:03.814Z,13.17
2017-05-27T00:50:01.104Z,13.18
2017-05-27T00:50:58.441Z,13.24
2017-05-27T00:51:54.819Z,13.18
2017-05-27T00:52:52.072Z,13.17
2017-05-27T00:53:52.500Z,13.23
2017-05-27T00:54:48.881Z,13.17
2017-05-27T00:55:45.175Z,13.21
2017-05-27T00:56:42.268Z,13.21
2017-05-27T00:57:38.598Z,13.23
2017-05-27T00:58:35.791Z,13.17
2017-05-27T00:59:32.291Z,13.15
2017-05-27T01:00:28.575Z,13.23
2017-05-27T01:01:24.860Z,13.21
2017-05-27T01:02:21.262Z,13.14
2017-05-27T01:03:17.543Z,13.15
2017-05-27T01:04:13.899Z,13.14
2017-05-27T01:05:10.279Z,13.21
2017-05-27T01:06:06.595Z,13.21
2017-05-27T01:07:02.871Z,13.21
2017-05-27T01:07:59.224Z,13.12
2017-05-27T01:08:55.528Z,13.21
2017-05-27T01:09:52.775Z,13.12
2017-05-27T01:11:53.416Z,13.12
2017-05-27T01:12:49.780Z,13.20
2017-05-27T01:13:46.280Z,13.12
2017-05-27T01:14:42.687Z,13.12
2017-05-27T01:15:39.971Z,13.12
2017-05-27T01:20:04.943Z,13.12
2017-05-27T01:21:02.187Z,13.12
2017-05-27T01:21:58.563Z,13.12
2017-05-27T01:22:55.823Z,13.20
2017-05-27T01:23:52.124Z,13.20
2017-05-27T01:24:48.565Z,13.12
2017-05-27T01:25:44.896Z,13.12
2017-05-27T01:26:41.227Z,13.12
2017-05-27T01:27:37.515Z,13.20
2017-05-27T01:29:38.896Z,13.20
2017-05-27T01:30:35.350Z,13.12
2017-05-27T01:31:31.655Z,13.20
2017-05-27T01:32:28.738Z,13.12
2017-05-27T01:33:25.240Z,13.11
2017-05-27T01:34:21.643Z,13.20
2017-05-27T01:35:18.008Z,13.12
2017-05-27T01:36:14.384Z,13.12
2017-05-27T01:37:10.707Z,13.12
2017-05-27T01:38:07.089Z,13.12
2017-05-27T01:39:03.387Z,13.12
2017-05-27T01:40:00.644Z,13.12
2017-05-27T01:40:59.856Z,13.12
2017-05-27T01:41:56.296Z,13.12
2017-05-27T01:42:52.603Z,13.20
2017-05-27T01:44:54.040Z,13.20
2017-05-27T01:45:50.512Z,13.12
2017-05-27T01:46:47.663Z,13.12
2017-05-27T01:47:43.955Z,13.20
2017-05-27T01:48:40.272Z,13.12
2017-05-27T01:49:36.595Z,13.20
2017-05-27T01:50:32.914Z,13.12
2017-05-27T01:51:29.372Z,13.20
2017-05-27T01:52:26.750Z,13.12
2017-05-27T01:53:23.447Z,13.11
2017-05-27T01:54:19.767Z,12.82
2017-05-27T01:55:16.047Z,12.79
2017-05-27T01:56:13.203Z,12.84
2017-05-27T01:57:09.477Z,12.86
2017-05-27T01:58:06.684Z,12.82
2017-05-27T01:59:03.763Z,12.83
2017-05-27T02:00:00.039Z,12.84
2017-05-27T02:00:56.340Z,12.84
2017-05-27T02:01:53.364Z,12.86
2017-05-27T02:02:50.600Z,12.86
2017-05-27T02:03:46.889Z,12.86
2017-05-27T02:04:43.180Z,12.92
2017-05-27T02:05:41.355Z,12.90
2017-05-27T02:06:37.675Z,12.92
2017-05-27T02:07:33.958Z,12.92
2017-05-27T02:08:31.231Z,12.86
2017-05-27T02:09:27.545Z,12.87
2017-05-27T02:10:24.735Z,12.87
2017-05-27T02:11:21.027Z,12.87
2017-05-27T02:12:17.359Z,12.92
2017-05-27T02:13:14.419Z,12.89
2017-05-27T02:14:10.750Z,12.93
2017-05-27T02:15:07.239Z,12.87
2017-05-27T02:16:03.503Z,12.89
2017-05-27T02:16:59.811Z,12.93
2017-05-27T02:17:56.088Z,12.90
2017-05-27T02:18:52.353Z,12.93
2017-05-27T02:19:48.638Z,12.93
2017-05-27T02:20:45.671Z,12.93
2017-05-27T02:21:41.976Z,12.95
2017-05-27T02:22:38.275Z,12.95
2017-05-27T02:23:34.604Z,12.93
2017-05-27T02:24:30.875Z,12.90
2017-05-27T02:25:27.196Z,12.90
2017-05-27T02:26:23.507Z,12.90
2017-05-27T02:27:19.775Z,12.90
2017-05-27T02:28:16.063Z,12.90
2017-05-27T02:29:12.367Z,12.95
2017-05-27T02:30:08.681Z,12.89
2017-05-27T02:31:05.955Z,12.95
2017-05-27T02:32:03.138Z,12.95
2017-05-27T02:32:59.407Z,12.89
2017-05-27T02:33:55.700Z,12.96
2017-05-27T02:34:52.888Z,12.90
2017-05-27T02:35:49.939Z,12.90
2017-05-27T02:36:47.152Z,12.95
2017-05-27T02:37:43.514Z,12.90
2017-05-27T02:38:40.799Z,12.90
2017-05-27T02:39:37.944Z,12.95
2017-05-27T02:40:34.335Z,12.95
2017-05-27T02:41:31.472Z,12.92
2017-05-27T02:42:28.760Z,12.95
2017-05-27T02:43:25.928Z,12.95
2017-05-27T02:44:22.299Z,12.90
2017-05-27T02:45:18.684Z,12.90
2017-05-27T02:46:15.016Z,12.95
2017-05-27T02:47:11.295Z,12.90
2017-05-27T02:48:07.591Z,12.90
2017-05-27T02:49:03.895Z,12.95
2017-05-27T02:50:00.215Z,12.90
2017-05-27T02:50:57.334Z,12.95
2017-05-27T02:51:54.740Z,12.90
2017-05-27T02:52:51.039Z,12.90
2017-05-27T02:53:48.224Z,12.95
2017-05-27T02:54:44.522Z,12.90
2017-05-27T02:55:41.635Z,12.95
2017-05-27T02:56:37.935Z,12.90
2017-05-27T02:57:34.194Z,12.95
2017-05-27T02:58:30.535Z,12.95
2017-05-27T02:59:26.839Z,12.89
2017-05-27T03:00:23.256Z,12.95
2017-05-27T03:01:19.551Z,12.95
2017-05-27T03:02:15.840Z,12.95
2017-05-27T03:03:12.144Z,12.95
2017-05-27T03:04:09.288Z,12.95
2017-05-27T03:05:05.664Z,12.90
2017-05-27T03:06:01.971Z,12.89
2017-05-27T03:06:58.303Z,12.95
2017-05-27T03:07:54.683Z,12.93
2017-05-27T03:08:51.003Z,12.93
2017-05-27T03:09:48.156Z,12.95
2017-05-27T03:10:44.467Z,12.89
2017-05-27T03:11:40.750Z,12.89
2017-05-27T03:12:37.067Z,12.93
2017-05-27T03:13:33.347Z,12.89
2017-05-27T03:14:29.631Z,12.93
2017-05-27T03:15:25.927Z,12.93
2017-05-27T03:16:23.216Z,12.87
2017-05-27T03:17:19.516Z,12.89
2017-05-27T03:18:15.815Z,12.93
2017-05-27T03:19:12.147Z,12.93
2017-05-27T03:20:09.452Z,12.89
2017-05-27T03:21:06.608Z,12.93
2017-05-27T03:22:02.980Z,12.90
2017-05-27T03:23:00.295Z,12.87
2017-05-27T03:23:57.556Z,12.87
2017-05-27T03:24:53.844Z,12.93
2017-05-27T03:25:51.147Z,12.93
2017-05-27T03:26:47.556Z,12.89
2017-05-27T03:27:43.920Z,12.93
2017-05-27T03:28:41.275Z,12.93
2017-05-27T03:29:37.712Z,12.89
2017-05-27T03:30:34.015Z,12.93
2017-05-27T03:31:30.407Z,12.93
2017-05-27T03:33:33.824Z,12.87
2017-05-27T03:34:30.163Z,12.89
2017-05-27T03:35:27.575Z,12.86
2017-05-27T03:36:24.020Z,12.92
2017-05-27T03:37:20.692Z,12.92
2017-05-27T03:38:17.116Z,12.87
2017-05-27T03:39:15.240Z,12.87
2017-05-27T03:40:11.699Z,12.87
2017-05-27T03:41:07.983Z,12.87
2017-05-27T03:42:04.343Z,12.86
2017-05-27T03:43:00.687Z,12.87
2017-05-27T03:43:56.963Z,12.87
2017-05-27T03:44:53.279Z,12.87
2017-05-27T03:45:50.611Z,12.87
2017-05-27T03:46:46.903Z,12.90
2017-05-27T03:47:43.224Z,12.92
2017-05-27T03:48:40.404Z,12.87
2017-05-27T03:49:36.750Z,12.90
2017-05-27T03:50:33.023Z,12.87
2017-05-27T03:51:31.238Z,12.87
2017-05-27T03:52:27.544Z,12.87
2017-05-27T03:53:25.805Z,12.87
2017-05-27T03:54:22.092Z,12.86
2017-05-27T03:55:18.371Z,12.87
2017-05-27T03:56:15.572Z,12.90
2017-05-27T03:57:11.879Z,12.92
2017-05-27T03:58:09.071Z,12.90
2017-05-27T03:59:05.358Z,12.92
2017-05-27T04:00:01.674Z,12.86
2017-05-27T04:00:59.840Z,12.86
2017-05-27T04:01:56.171Z,12.90
2017-05-27T04:02:52.520Z,12.86
2017-05-27T04:03:48.833Z,12.87
2017-05-27T04:04:46.267Z,12.90
2017-05-27T04:05:42.641Z,12.86
2017-05-27T04:06:38.955Z,12.90
2017-05-27T04:07:36.268Z,12.90
2017-05-27T04:08:32.636Z,12.92
2017-05-27T04:09:28.922Z,12.86
2017-05-27T04:10:26.075Z,12.87
2017-05-27T04:11:23.179Z,12.92
2017-05-27T04:12:20.404Z,12.86
2017-05-27T04:13:18.704Z,12.86
2017-05-27T04:14:15.121Z,12.90
2017-05-27T04:15:12.231Z,12.86
2017-05-27T04:16:08.515Z,12.86
2017-05-27T04:17:05.763Z,12.86
2017-05-27T04:18:02.099Z,12.87
2017-05-27T04:18:58.419Z,12.90
2017-05-27T04:19:54.755Z,12.86
2017-05-27T04:20:52.081Z,12.87
2017-05-27T04:21:48.411Z,12.87
2017-05-27T04:22:46.743Z,12.90
2017-05-27T04:23:44.007Z,12.87
2017-05-27T04:24:40.328Z,12.87
2017-05-27T04:26:41.672Z,12.86
2017-05-27T04:27:40.021Z,12.86
2017-05-27T04:28:36.403Z,12.90
2017-05-27T04:29:33.692Z,12.87
2017-05-27T04:30:30.087Z,12.92
2017-05-27T04:31:27.296Z,12.87
2017-05-27T04:32:25.640Z,12.90
2017-05-27T04:33:21.959Z,12.86
2017-05-27T04:34:18.380Z,12.87
2017-05-27T04:36:23.600Z,12.92
2017-05-27T04:37:21.803Z,12.92
2017-05-27T04:38:18.208Z,12.87
2017-05-27T04:39:15.525Z,12.87
2017-05-27T04:40:12.655Z,12.87
2017-05-27T04:41:09.959Z,12.86
2017-05-27T04:42:06.272Z,12.87
2017-05-27T04:43:03.403Z,12.87
2017-05-27T04:43:59.852Z,12.87
2017-05-27T04:44:56.372Z,12.92
2017-05-27T04:45:52.711Z,12.87
2017-05-27T04:46:50.948Z,12.87
2017-05-27T04:47:47.299Z,12.92
2017-05-27T04:48:43.620Z,12.92
2017-05-27T04:49:40.152Z,12.87
2017-05-27T04:50:36.475Z,12.87
2017-05-27T04:51:33.767Z,12.92
2017-05-27T04:52:30.176Z,12.87
2017-05-27T04:53:27.356Z,12.89
2017-05-27T04:54:23.691Z,12.89
2017-05-27T04:55:21.018Z,12.89
2017-05-27T04:56:17.388Z,12.87
2017-05-27T04:57:13.808Z,12.87
2017-05-27T04:58:11.031Z,12.87
2017-05-27T04:59:08.268Z,12.87
2017-05-27T05:00:04.917Z,12.87
2017-05-27T05:01:01.339Z,12.87
2017-05-27T05:01:57.717Z,12.92
2017-05-27T05:02:54.217Z,12.93
2017-05-27T05:03:50.799Z,12.93
2017-05-27T05:04:47.104Z,12.89
2017-05-27T05:05:47.524Z,12.89
2017-05-27T05:06:44.657Z,12.93
2017-05-27T05:07:41.782Z,12.92
2017-05-27T05:08:38.185Z,12.93
2017-05-27T05:09:34.608Z,12.89
2017-05-27T05:10:30.963Z,12.93
2017-05-27T05:11:28.040Z,12.90
2017-05-27T05:12:26.192Z,12.95
2017-05-27T05:13:22.579Z,12.95
2017-05-27T05:14:19.753Z,12.89
2017-05-27T05:15:16.836Z,12.90
2017-05-27T05:17:24.628Z,12.95
2017-05-27T05:18:21.007Z,12.90
2017-05-27T05:19:19.212Z,12.95
2017-05-27T05:20:15.543Z,12.95
2017-05-27T05:21:11.854Z,12.90
2017-05-27T05:22:08.209Z,12.90
2017-05-27T05:23:04.746Z,12.95
2017-05-27T05:24:01.047Z,12.90
2017-05-27T05:24:58.219Z,12.95
2017-05-27T05:25:54.499Z,12.90
2017-05-27T05:26:50.807Z,12.90
2017-05-27T05:27:47.119Z,12.90
2017-05-27T05:28:45.444Z,12.95
2017-05-27T05:29:41.815Z,12.95
2017-05-27T05:30:38.903Z,12.92
2017-05-27T05:31:36.003Z,12.92
2017-05-27T05:32:32.336Z,12.96
2017-05-27T05:33:28.684Z,12.96
2017-05-27T05:34:26.004Z,12.92
2017-05-27T05:35:24.421Z,12.96
2017-05-27T05:36:21.836Z,12.92
2017-05-27T05:37:18.139Z,12.96
2017-05-27T05:40:27.695Z,12.93
2017-05-27T05:41:23.991Z,12.98
2017-05-27T05:42:20.291Z,13.01
2017-05-27T05:43:16.575Z,13.08
2017-05-27T05:45:25.328Z,13.09
2017-05-27T05:46:23.604Z,13.11
2017-05-27T05:47:20.172Z,13.08
2017-05-27T05:48:16.591Z,13.12
2017-05-27T05:49:12.905Z,13.09
2017-05-27T05:50:09.233Z,13.09
2017-05-27T05:51:06.448Z,13.18
2017-05-27T05:52:02.899Z,13.18
2017-05-27T05:53:00.098Z,13.11
2017-05-27T05:53:56.516Z,13.20
2017-05-27T05:54:52.877Z,13.20
2017-05-27T05:55:51.121Z,13.12
2017-05-27T05:56:47.484Z,13.12
2017-05-27T05:57:44.933Z,13.21
2017-05-27T05:58:42.300Z,13.23
2017-05-27T05:59:38.717Z,13.24
2017-05-27T06:00:36.860Z,13.20
2017-05-27T06:01:33.152Z,13.26
2017-05-27T06:02:30.315Z,13.26
2017-05-27T06:03:27.465Z,13.26
2017-05-27T06:04:23.763Z,13.26
2017-05-27T06:05:21.227Z,13.27
2017-05-27T06:06:17.603Z,13.21
2017-05-27T06:07:14.815Z,13.27
2017-05-27T06:08:11.139Z,13.27
2017-05-27T06:09:07.488Z,13.27
2017-05-27T06:10:03.800Z,13.23
2017-05-27T06:11:00.087Z,13.27
2017-05-27T06:11:56.611Z,13.21
2017-05-27T06:12:52.895Z,13.27
2017-05-27T06:13:49.247Z,13.23
2017-05-27T06:14:45.560Z,13.27
2017-05-27T06:15:42.728Z,13.23
2017-05-27T06:16:39.111Z,13.24
2017-05-27T06:17:37.456Z,13.27
2017-05-27T06:18:33.782Z,13.27
2017-05-27T06:19:30.184Z,13.24
2017-05-27T06:20:26.482Z,13.28
2017-05-27T06:21:23.788Z,13.28
2017-05-27T06:22:20.206Z,13.28
2017-05-27T06:23:18.432Z,13.28
2017-05-27T06:24:14.794Z,13.30
2017-05-27T06:25:11.074Z,13.30
2017-05-27T06:26:07.358Z,13.27
2017-05-27T06:27:03.667Z,13.27
2017-05-27T06:27:59.975Z,13.30
2017-05-27T06:28:58.138Z,13.31
2017-05-27T06:29:54.539Z,13.27
2017-05-27T06:30:50.812Z,13.28
2017-05-27T06:31:49.056Z,13.33
2017-05-27T06:32:45.379Z,13.36
2017-05-27T06:33:41.663Z,13.36
2017-05-27T06:34:37.940Z,13.31
2017-05-27T06:35:34.260Z,13.36
2017-05-27T06:36:30.541Z,13.36
2017-05-27T06:37:26.823Z,13.33
2017-05-27T06:38:24.059Z,13.33
2017-05-27T06:39:20.380Z,13.33
2017-05-27T06:43:46.624Z,13.33
2017-05-27T06:44:42.960Z,13.37
2017-05-27T06:45:39.235Z,13.33
2017-05-27T06:46:35.498Z,13.37
2017-05-27T06:47:31.755Z,13.37
2017-05-27T06:48:28.088Z,13.37
2017-05-27T06:49:24.419Z,13.37
2017-05-27T06:50:22.642Z,13.33
2017-05-27T06:51:18.967Z,13.37
2017-05-27T06:52:17.331Z,13.37
2017-05-27T06:53:13.700Z,13.37
2017-05-27T06:54:10.867Z,13.37
2017-05-27T06:55:07.267Z,13.33
2017-05-27T06:56:03.561Z,13.33
2017-05-27T06:57:00.791Z,13.33
2017-05-27T06:57:59.100Z,13.33
2017-05-27T06:58:55.460Z,13.33
2017-05-27T06:59:51.761Z,13.33
2017-05-27T07:00:48.027Z,13.34
2017-05-27T07:01:44.336Z,13.39
2017-05-27T07:02:40.604Z,13.40
2017-05-27T07:03:36.883Z,13.40
2017-05-27T07:04:33.188Z,13.40
2017-05-27T07:05:29.513Z,13.37
2017-05-27T07:06:25.839Z,13.40
2017-05-27T07:07:22.127Z,13.37
2017-05-27T07:08:18.466Z,13.37
2017-05-27T07:09:14.798Z,13.43
2017-05-27T07:10:12.023Z,13.39
2017-05-27T07:11:08.328Z,13.43
2017-05-27T07:12:04.672Z,13.39
2017-05-27T07:13:01.805Z,13.43
2017-05-27T07:13:58.095Z,13.39
2017-05-27T07:14:54.360Z,13.43
2017-05-27T07:15:50.703Z,13.39
2017-05-27T07:16:47.011Z,13.43
2017-05-27T07:17:43.295Z,13.43
2017-05-27T07:18:40.340Z,13.40
2017-05-27T07:19:36.658Z,13.43
2017-05-27T07:20:32.959Z,13.45
2017-05-27T07:21:29.292Z,13.45
2017-05-27T07:22:26.607Z,13.45
2017-05-27T07:23:22.871Z,13.40
2017-05-27T07:24:20.043Z,13.40
2017-05-27T07:25:16.323Z,13.40
2017-05-27T07:26:12.623Z,13.45
2017-05-27T07:27:08.930Z,13.45
2017-05-27T07:28:05.211Z,13.45
2017-05-27T07:29:01.463Z,13.42
2017-05-27T07:29:57.741Z,13.46
2017-05-27T07:30:54.050Z,13.43
2017-05-27T07:31:50.323Z,13.46
2017-05-27T07:32:46.601Z,13.43
2017-05-27T07:33:43.763Z,13.43
2017-05-27T07:34:40.108Z,13.43
2017-05-27T07:35:36.423Z,13.48
2017-05-27T07:36:32.743Z,13.49
2017-05-27T07:37:29.051Z,13.49
2017-05-27T07:38:27.268Z,13.49
2017-05-27T07:39:23.540Z,13.46
2017-05-27T07:40:19.818Z,13.46
2017-05-27T07:41:16.085Z,13.50
2017-05-27T07:42:12.399Z,13.50
2017-05-27T07:43:08.691Z,13.52
2017-05-27T07:44:04.971Z,13.46
2017-05-27T07:45:02.263Z,13.52
2017-05-27T07:45:59.553Z,13.52
2017-05-27T07:46:55.858Z,13.48
2017-05-27T07:47:52.196Z,13.49
2017-05-27T07:48:48.580Z,13.53
2017-05-27T07:49:44.896Z,13.53
2017-05-27T07:50:41.199Z,13.49
2017-05-27T07:51:37.521Z,13.50
2017-05-27T07:52:33.862Z,13.53
2017-05-27T07:53:30.175Z,13.53
2017-05-27T07:54:26.508Z,13.52
2017-05-27T07:55:22.848Z,13.50
2017-05-27T07:56:19.148Z,13.55
2017-05-27T07:57:15.475Z,13.55
2017-05-27T07:58:11.896Z,13.55
2017-05-27T07:59:08.169Z,13.52
2017-05-27T08:00:04.471Z,13.52
2017-05-27T08:01:00.859Z,13.52
2017-05-27T08:01:57.131Z,13.56
2017-05-27T08:02:53.527Z,13.52
2017-05-27T08:03:49.800Z,13.56
2017-05-27T08:04:46.115Z,13.56
2017-05-27T08:05:42.399Z,13.56
2017-05-27T08:06:38.683Z,13.58
2017-05-27T08:07:34.956Z,13.55
2017-05-27T08:08:31.229Z,13.55
2017-05-27T08:09:27.531Z,13.55
2017-05-27T08:10:23.836Z,13.61
2017-05-27T08:11:20.095Z,13.56
2017-05-27T08:12:16.351Z,13.64
2017-05-27T08:13:12.630Z,13.64
2017-05-27T08:14:09.216Z,13.65
2017-05-27T08:15:05.698Z,13.65
2017-05-27T08:16:02.023Z,13.67
2017-05-27T08:16:58.283Z,13.64
2017-05-27T08:17:54.547Z,13.64
2017-05-27T08:18:50.794Z,13.65
2017-05-27T08:19:47.059Z,13.68
2017-05-27T08:20:43.314Z,13.65
2017-05-27T08:21:39.604Z,13.71
2017-05-27T08:22:35.903Z,13.71
2017-05-27T08:23:32.155Z,13.71
2017-05-27T08:24:28.435Z,13.71
2017-05-27T08:25:24.710Z,13.67
2017-05-27T08:26:20.963Z,13.71
2017-05-27T08:27:17.235Z,13.72
2017-05-27T08:28:14.416Z,13.74
2017-05-27T08:29:10.703Z,13.70
2017-05-27T08:30:06.971Z,13.71
2017-05-27T08:31:03.251Z,13.78
2017-05-27T08:31:59.523Z,13.81
2017-05-27T08:33:00.460Z,13.84
2017-05-27T08:34:01.414Z,13.93
2017-05-27T08:35:02.361Z,13.93
2017-05-27T08:35:58.634Z,13.96
2017-05-27T08:36:54.920Z,14.05
2017-05-27T08:37:51.180Z,13.97
2017-05-27T08:38:47.451Z,14.11
2017-05-27T08:39:43.710Z,14.09
2017-05-27T08:40:39.974Z,13.96
2017-05-27T08:41:36.248Z,13.96
2017-05-27T08:42:32.547Z,13.96
2017-05-27T08:43:28.820Z,13.96
2017-05-27T08:44:25.079Z,14.09
2017-05-27T08:45:21.331Z,13.91
2017-05-27T08:46:17.606Z,13.96
2017-05-27T08:47:13.859Z,14.11
2017-05-27T08:48:10.143Z,13.94
2017-05-27T08:49:06.399Z,13.94
2017-05-27T08:50:02.655Z,13.94
2017-05-27T08:50:59.695Z,13.94
2017-05-27T08:51:55.977Z,13.94
2017-05-27T08:52:52.224Z,13.94
2017-05-27T08:53:48.511Z,13.94
2017-05-27T08:54:44.768Z,13.96
2017-05-27T08:55:41.027Z,13.91
2017-05-27T08:56:37.289Z,13.91
2017-05-27T08:57:33.543Z,14.12
2017-05-27T08:58:29.824Z,13.97
2017-05-27T08:59:26.103Z,13.94
2017-05-27T09:00:22.383Z,14.00
2017-05-27T09:01:18.639Z,14.02
2017-05-27T09:02:14.904Z,14.03
2017-05-27T09:03:11.162Z,14.15
2017-05-27T09:04:07.440Z,14.05
2017-05-27T09:05:03.732Z,14.05
2017-05-27T09:05:59.977Z,14.22
2017-05-27T09:06:56.235Z,14.06
2017-05-27T09:07:52.495Z,14.08
2017-05-27T09:08:48.755Z,14.08
2017-05-27T09:09:45.035Z,14.09
2017-05-27T09:10:41.299Z,14.25
2017-05-27T09:11:37.554Z,14.09
2017-05-27T09:12:33.816Z,14.08
2017-05-27T09:13:30.080Z,14.28
2017-05-27T09:14:26.347Z,14.09
2017-05-27T09:15:22.623Z,14.11
2017-05-27T09:16:18.881Z,14.13
2017-05-27T09:17:15.140Z,14.12
2017-05-27T09:18:11.408Z,14.11
2017-05-27T09:19:07.698Z,14.08
2017-05-27T09:20:03.963Z,14.12
2017-05-27T09:21:00.252Z,14.12
2017-05-27T09:21:56.512Z,14.06
2017-05-27T09:22:52.771Z,14.38
2017-05-27T09:23:49.042Z,14.34
2017-05-27T09:24:45.308Z,14.08
2017-05-27T09:25:41.586Z,14.06
2017-05-27T09:26:37.871Z,14.06
2017-05-27T09:27:34.132Z,14.24
2017-05-27T09:28:30.395Z,14.08
2017-05-27T09:29:26.656Z,14.06
2017-05-27T09:30:22.930Z,14.08
2017-05-27T09:31:19.227Z,14.06
2017-05-27T09:32:15.487Z,14.02
2017-05-27T09:33:11.736Z,14.06
2017-05-27T09:34:08.001Z,14.27
2017-05-27T09:35:04.292Z,14.06
2017-05-27T09:36:00.563Z,14.02
2017-05-27T09:36:56.840Z,14.05
2017-05-27T09:37:53.099Z,14.02
2017-05-27T09:38:49.348Z,14.02
2017-05-27T09:39:45.618Z,14.02
2017-05-27T09:40:41.891Z,14.05
2017-05-27T09:41:38.151Z,14.05
2017-05-27T09:42:34.436Z,14.05
2017-05-27T09:43:30.695Z,14.06
2017-05-27T09:44:26.963Z,14.05
2017-05-27T09:45:23.231Z,14.05
2017-05-27T09:46:19.495Z,14.05
2017-05-27T09:47:15.771Z,14.00
2017-05-27T09:48:12.087Z,14.00
2017-05-27T09:49:08.371Z,14.05
2017-05-27T09:50:04.639Z,14.05
2017-05-27T09:51:00.907Z,14.00
2017-05-27T09:51:57.166Z,14.05
2017-05-27T09:52:53.430Z,14.00
2017-05-27T09:53:49.702Z,14.22
2017-05-27T09:54:45.982Z,14.03
2017-05-27T09:55:42.247Z,13.97
2017-05-27T09:56:38.531Z,14.03
2017-05-27T09:57:34.803Z,14.03
2017-05-27T09:58:31.206Z,14.02
2017-05-27T09:59:27.503Z,14.02
2017-05-27T10:00:23.759Z,14.02
2017-05-27T10:01:20.026Z,14.00
2017-05-27T10:02:16.296Z,14.02
2017-05-27T10:03:12.559Z,13.96
2017-05-27T10:04:08.827Z,14.00
2017-05-27T10:05:05.106Z,13.99
2017-05-27T10:06:01.366Z,13.99
2017-05-27T10:06:57.623Z,13.94
2017-05-27T10:07:53.896Z,13.97
2017-05-27T10:08:50.170Z,13.97
2017-05-27T10:09:46.440Z,13.97
2017-05-27T10:10:42.715Z,13.93
2017-05-27T10:11:38.990Z,13.96
2017-05-27T10:12:35.247Z,13.96
2017-05-27T10:13:31.518Z,13.96
2017-05-27T10:14:27.788Z,13.96
2017-05-27T10:15:24.063Z,13.96
2017-05-27T10:16:20.319Z,13.94
2017-05-27T10:17:16.575Z,14.15
2017-05-27T10:18:12.851Z,14.09
2017-05-27T10:19:09.118Z,13.94
2017-05-27T10:20:05.375Z,13.90
2017-05-27T10:21:01.652Z,13.90
2017-05-27T10:21:57.928Z,13.93
2017-05-27T10:22:54.228Z,13.91
2017-05-27T10:23:50.503Z,13.89
2017-05-27T10:24:46.772Z,13.91
2017-05-27T10:25:43.043Z,13.96
2017-05-27T10:26:39.311Z,13.91
2017-05-27T10:27:35.584Z,13.91
2017-05-27T10:28:31.864Z,14.12
2017-05-27T10:29:28.143Z,13.91
2017-05-27T10:30:24.395Z,13.91
2017-05-27T10:31:20.683Z,13.91
2017-05-27T10:32:16.941Z,13.91
2017-05-27T10:33:13.194Z,13.91
2017-05-27T10:34:09.463Z,14.09
2017-05-27T10:35:05.719Z,13.91
2017-05-27T10:36:01.983Z,13.91
2017-05-27T10:36:58.275Z,13.90
2017-05-27T10:37:54.547Z,13.87
2017-05-27T10:38:50.823Z,13.87
2017-05-27T10:39:47.096Z,13.91
2017-05-27T10:40:43.375Z,13.90
2017-05-27T10:41:39.640Z,13.90
2017-05-27T10:42:35.935Z,13.90
2017-05-27T10:43:32.200Z,13.84
2017-05-27T10:44:28.495Z,13.90
2017-05-27T10:45:25.009Z,13.90
2017-05-27T10:46:21.266Z,13.86
2017-05-27T10:47:17.528Z,13.90
2017-05-27T10:48:13.813Z,13.90
2017-05-27T10:49:10.079Z,13.90
2017-05-27T10:50:06.347Z,13.84
2017-05-27T10:51:02.612Z,13.84
2017-05-27T10:51:58.862Z,13.84
2017-05-27T10:52:55.137Z,13.90
2017-05-27T10:53:51.432Z,13.84
2017-05-27T10:54:47.695Z,13.90
2017-05-27T10:55:43.959Z,13.90
2017-05-27T10:56:40.251Z,13.90
2017-05-27T10:57:36.533Z,13.90
2017-05-27T10:58:32.819Z,13.90
2017-05-27T10:59:29.087Z,13.90
2017-05-27T11:00:25.351Z,13.90
2017-05-27T11:01:21.610Z,13.89
2017-05-27T11:02:17.875Z,13.84
2017-05-27T11:03:14.131Z,13.89
2017-05-27T11:04:10.411Z,13.89
2017-05-27T11:05:06.700Z,13.90
2017-05-27T11:06:02.978Z,13.83
2017-05-27T11:06:59.239Z,13.89
2017-05-27T11:07:55.499Z,13.90
2017-05-27T11:08:51.779Z,13.90
2017-05-27T11:09:48.079Z,13.90
2017-05-27T11:10:44.355Z,13.90
2017-05-27T11:11:40.626Z,13.84
2017-05-27T11:12:36.894Z,13.84
2017-05-27T11:13:33.167Z,13.90
2017-05-27T11:14:29.452Z,13.90
2017-05-27T11:15:25.722Z,13.83
2017-05-27T11:16:21.986Z,13.84
2017-05-27T11:17:18.244Z,13.89
2017-05-27T11:18:14.530Z,14.08
2017-05-27T11:19:10.798Z,13.83
2017-05-27T11:20:07.071Z,13.89
2017-05-27T11:21:03.328Z,13.89
2017-05-27T11:21:59.636Z,13.87
2017-05-27T11:22:55.919Z,13.83
2017-05-27T11:23:52.183Z,13.83
2017-05-27T11:24:48.442Z,13.89
2017-05-27T11:25:44.749Z,13.89
2017-05-27T11:26:41.028Z,13.83
2017-05-27T11:27:37.299Z,13.89
2017-05-27T11:28:33.559Z,13.87
2017-05-27T11:29:29.823Z,13.86
2017-05-27T11:30:26.099Z,13.83
2017-05-27T11:31:22.375Z,13.89
2017-05-27T11:32:18.639Z,13.89
2017-05-27T11:33:14.894Z,13.87
2017-05-27T11:34:11.151Z,14.06
2017-05-27T11:35:07.413Z,13.87
2017-05-27T11:36:03.712Z,13.87
2017-05-27T11:37:00.876Z,13.86
2017-05-27T11:37:57.143Z,13.89
2017-05-27T11:38:53.406Z,13.87
2017-05-27T11:39:49.666Z,13.83
2017-05-27T11:40:45.952Z,13.83
2017-05-27T11:41:42.243Z,13.87
2017-05-27T11:42:38.551Z,13.87
2017-05-27T11:43:34.807Z,13.87
2017-05-27T11:44:31.075Z,13.89
2017-05-27T11:45:27.343Z,13.87
2017-05-27T11:46:23.603Z,13.89
2017-05-27T11:47:19.887Z,13.83
2017-05-27T11:48:16.163Z,13.89
2017-05-27T11:49:12.416Z,13.86
2017-05-27T11:50:08.670Z,13.89
2017-05-27T11:51:04.943Z,13.83
2017-05-27T11:52:01.190Z,13.81
2017-05-27T11:52:57.471Z,13.87
2017-05-27T11:53:53.747Z,13.87
2017-05-27T11:54:50.010Z,14.02
2017-05-27T11:55:46.267Z,13.87
2017-05-27T11:56:42.544Z,13.86
2017-05-27T11:57:38.838Z,13.87
2017-05-27T11:58:35.097Z,14.05
2017-05-27T11:59:31.366Z,13.87
2017-05-27T12:00:27.651Z,13.83
2017-05-27T12:01:23.919Z,13.89
2017-05-27T12:02:20.183Z,13.86
2017-05-27T12:03:16.459Z,13.87
2017-05-27T12:04:12.770Z,13.87
2017-05-27T12:05:09.079Z,13.87
2017-05-27T12:06:05.339Z,13.87
2017-05-27T12:07:01.614Z,13.89
2017-05-27T12:07:57.875Z,13.83
2017-05-27T12:08:54.175Z,13.89
2017-05-27T12:09:50.446Z,13.83
2017-05-27T12:10:46.719Z,13.83
2017-05-27T12:11:42.987Z,13.81
2017-05-27T12:12:39.246Z,13.87
2017-05-27T12:13:35.513Z,13.86
2017-05-27T12:14:31.787Z,13.86
2017-05-27T12:15:28.046Z,13.81
2017-05-27T12:16:24.313Z,13.86
2017-05-27T12:17:20.590Z,13.86
2017-05-27T12:18:16.828Z,13.81
2017-05-27T12:19:13.087Z,13.86
2017-05-27T12:20:09.358Z,13.86
2017-05-27T12:21:05.618Z,13.87
2017-05-27T12:22:01.879Z,13.86
2017-05-27T12:22:58.172Z,13.86
2017-05-27T12:23:54.459Z,13.87
2017-05-27T12:24:50.767Z,13.84
2017-05-27T12:25:47.017Z,13.87
2017-05-27T12:26:43.267Z,13.87
2017-05-27T12:27:39.514Z,13.86
2017-05-27T12:28:35.787Z,13.86
2017-05-27T12:29:32.040Z,13.81
2017-05-27T12:30:28.322Z,13.84
2017-05-27T12:31:24.603Z,13.87
2017-05-27T12:32:20.868Z,13.84
2017-05-27T12:33:17.127Z,13.81
2017-05-27T12:34:13.382Z,13.84
2017-05-27T12:35:09.650Z,13.81
2017-05-27T12:36:05.937Z,13.81
2017-05-27T12:37:02.199Z,13.84